Time;durP1;ratioP1;P1;durP2;ratioP2;P2;SDS_P1;SDS_P2;PMS_P1;PMS_P2;Temp;Humidity;BMP_temperature;BMP_pressure;BME280_temperature;BME280_humidity;BME280_pressure;Samples;Min_cycle;Max_cycle;Signal;HPM_P1;HPM_P2
2022/07/30 00:01:22;;;;;;;;;;;;;;;16.18;100.00;-25522.38;5074330;28;20233;-78
2022/07/30 00:03:49;;;;;;;;;;;;;;;16.15;100.00;-25521.63;5091385;28;19967;-78
2022/07/30 00:06:15;;;;;;;;;;;;;;;16.24;100.00;-25524.13;5091807;28;19928;-78
2022/07/30 00:08:40;;;;;;;;;;;;;;;16.25;100.00;-25524.41;5078655;28;20379;-78
2022/07/30 00:11:06;;;;;;;;;;;;;;;16.18;100.00;-25522.38;5053214;28;19964;-78
2022/07/30 00:13:32;;;;;;;;;;;;;;;16.19;100.00;-25522.66;5067562;28;20284;-79
2022/07/30 00:15:57;;;;;;;;;;;;;;;16.15;100.00;-25521.63;5052747;28;19924;-78
2022/07/30 00:18:22;;;;;;;;;;;;;;;16.12;100.00;-25520.91;5052859;28;19924;-79
2022/07/30 00:20:48;;;;;;;;;;;;;;;16.17;100.00;-25522.06;5053567;28;19923;-79
2022/07/30 00:23:14;;;;;;;;;;;;;;;16.18;100.00;-25522.38;5076699;28;19943;-79
2022/07/30 00:25:39;;;;;;;;;;;;;;;16.12;100.00;-25520.91;5081623;28;19916;-80
2022/07/30 00:28:04;;;;;;;;;;;;;;;16.06;100.00;-25519.03;5086784;28;20023;-77
2022/07/30 00:30:30;;;;;;;;;;;;;;;16.05;100.00;-25518.88;5073503;28;19966;-77
2022/07/30 00:32:55;;;;;;;;;;;;;;;16.06;100.00;-25519.03;5077513;28;19924;-77
2022/07/30 00:35:20;;;;;;;;;;;;;;;16.11;100.00;-25520.47;5072750;28;19924;-78
2022/07/30 00:37:46;;;;;;;;;;;;;;;16.06;100.00;-25519.16;5075280;28;19961;-78
2022/07/30 00:40:11;;;;;;;;;;;;;;;16.09;100.00;-25520.03;5092060;28;19917;-77
2022/07/30 00:42:47;;;;;;;;;;;;;;;16.04;100.00;-25518.59;5079896;28;19917;-78
2022/07/30 00:45:13;;;;;;;;;;;;;;;16.04;100.00;-25518.59;5072122;28;20027;-78
2022/07/30 00:47:39;;;;;;;;;;;;;;;15.89;100.00;-25514.22;5070679;28;19925;-76
2022/07/30 00:50:06;;;;;;;;;;;;;;;15.81;100.00;-25512.06;5068412;28;19923;-76
2022/07/30 00:52:31;;;;;;;;;;;;;;;15.77;100.00;-25511.03;5059388;28;19920;-77
2022/07/30 00:54:57;;;;;;;;;;;;;;;15.85;100.00;-25513.22;5066445;28;20368;-78
2022/07/30 00:57:22;;;;;;;;;;;;;;;15.95;100.00;-25515.97;5086400;28;19927;-77
2022/07/30 00:59:47;;;;;;;;;;;;;;;15.99;100.00;-25517.13;5061362;28;20573;-77
2022/07/30 01:02:13;;;;;;;;;;;;;;;15.99;100.00;-25517.13;5100970;28;20421;-77
2022/07/30 01:04:38;;;;;;;;;;;;;;;15.98;100.00;-25516.84;5074894;28;20367;-77
2022/07/30 01:07:03;;;;;;;;;;;;;;;15.98;100.00;-25516.84;5070227;28;19921;-77
2022/07/30 01:09:28;;;;;;;;;;;;;;;15.93;100.00;-25515.41;5060005;28;19912;-78
2022/07/30 01:11:55;;;;;;;;;;;;;;;15.90;100.00;-25514.53;5092035;28;20261;-80
2022/07/30 01:14:20;;;;;;;;;;;;;;;15.83;100.00;-25512.50;5093281;28;19944;-79
2022/07/30 01:16:46;;;;;;;;;;;;;;;15.84;100.00;-25512.78;5090750;28;19912;-78
2022/07/30 01:22:10;;;;;;;;;;;;;;;15.64;100.00;-25507.25;5059976;28;20264;-78
2022/07/30 01:24:40;;;;;;;;;;;;;;;15.62;100.00;-25506.81;5102174;28;19916;-78
2022/07/30 01:27:06;;;;;;;;;;;;;;;15.58;100.00;-25505.50;5059248;28;20008;-78
2022/07/30 01:29:32;;;;;;;;;;;;;;;15.62;100.00;-25506.66;5063583;28;20011;-78
2022/07/30 01:31:58;;;;;;;;;;;;;;;15.53;100.00;-25504.06;5074330;28;19921;-78
2022/07/30 01:34:28;;;;;;;;;;;;;;;15.53;100.00;-25504.19;5071758;28;19970;-78
2022/07/30 01:36:55;;;;;;;;;;;;;;;15.61;100.00;-25506.53;5068407;28;20357;-78
2022/07/30 01:39:20;;;;;;;;;;;;;;;15.63;100.00;-25506.97;5067406;28;19928;-77
2022/07/30 01:41:48;;;;;;;;;;;;;;;15.62;100.00;-25506.66;5073524;28;19925;-75
2022/07/30 01:44:15;;;;;;;;;;;;;;;15.60;100.00;-25506.09;5079341;28;19924;-75
2022/07/30 01:46:41;;;;;;;;;;;;;;;15.56;100.00;-25504.91;5069005;28;19928;-78
2022/07/30 01:49:08;;;;;;;;;;;;;;;15.50;100.00;-25503.31;5120555;28;20007;-76
2022/07/30 01:51:36;;;;;;;;;;;;;;;15.54;100.00;-25504.50;5086299;28;20069;-77
2022/07/30 01:54:01;;;;;;;;;;;;;;;15.55;100.00;-25504.63;5061120;28;19921;-79
2022/07/30 01:56:29;;;;;;;;;;;;;;;15.59;100.00;-25505.94;5069753;28;19916;-77
2022/07/30 01:58:55;;;;;;;;;;;;;;;15.58;100.00;-25505.50;5059895;28;20126;-77
2022/07/30 02:01:21;;;;;;;;;;;;;;;15.55;100.00;-25504.63;5072997;28;20027;-77
2022/07/30 02:03:47;;;;;;;;;;;;;;;15.43;100.00;-25501.44;5069504;28;19924;-77
2022/07/30 02:06:16;;;;;;;;;;;;;;;15.36;100.00;-25499.25;5064705;28;20713;-77
2022/07/30 02:08:53;;;;;;;;;;;;;;;15.34;100.00;-25498.66;5070911;28;19962;-75
2022/07/30 02:12:27;;;;;;;;;;;;;;;15.29;100.00;-25497.34;5070783;28;19916;-76
2022/07/30 02:14:27;;;;;;;;;;;;;;;15.33;100.00;-25498.53;5058715;28;19975;-76
2022/07/30 02:16:55;;;;;;;;;;;;;;;15.37;100.00;-25499.53;5044745;28;19921;-77
2022/07/30 02:19:22;;;;;;;;;;;;;;;15.33;100.00;-25498.38;5050503;28;22269;-77
2022/07/30 02:21:51;;;;;;;;;;;;;;;15.23;100.00;-25495.75;5056411;28;19952;-77
2022/07/30 02:24:22;;;;;;;;;;;;;;;15.22;100.00;-25495.31;5076138;28;19971;-76
2022/07/30 02:26:50;;;;;;;;;;;;;;;15.27;100.00;-25496.78;5060119;28;19931;-76
2022/07/30 02:29:17;;;;;;;;;;;;;;;15.26;100.00;-25496.50;5068798;28;20006;-76
2022/07/30 02:31:42;;;;;;;;;;;;;;;15.22;100.00;-25495.31;5072913;28;19920;-76
2022/07/30 02:34:09;;;;;;;;;;;;;;;15.23;100.00;-25495.63;5067891;28;19970;-76
2022/07/30 02:36:36;;;;;;;;;;;;;;;15.15;100.00;-25493.44;5074675;28;19920;-77
2022/07/30 02:39:03;;;;;;;;;;;;;;;15.20;100.00;-25494.75;5073393;28;19960;-77
2022/07/30 02:41:29;;;;;;;;;;;;;;;15.16;100.00;-25493.56;5062803;28;20403;-77
2022/07/30 02:43:55;;;;;;;;;;;;;;;15.11;100.00;-25492.13;5076543;28;19924;-77
2022/07/30 02:46:22;;;;;;;;;;;;;;;15.07;100.00;-25491.09;5093402;28;19923;-77
2022/07/30 02:48:48;;;;;;;;;;;;;;;15.04;100.00;-25490.38;5073959;28;19955;-77
2022/07/30 02:51:15;;;;;;;;;;;;;;;15.04;100.00;-25490.38;5073600;28;20070;-77
2022/07/30 02:53:44;;;;;;;;;;;;;;;15.01;100.00;-25489.50;5074310;28;19920;-77
2022/07/30 02:56:10;;;;;;;;;;;;;;;14.96;100.00;-25488.03;5093795;28;19916;-78
2022/07/30 02:58:36;;;;;;;;;;;;;;;15.00;100.00;-25489.06;5075698;28;19925;-78
2022/07/30 03:01:02;;;;;;;;;;;;;;;15.01;100.00;-25489.50;5062026;28;19928;-78
2022/07/30 03:03:35;;;;;;;;;;;;;;;14.99;100.00;-25488.78;5081916;28;19920;-78
2022/07/30 03:06:01;;;;;;;;;;;;;;;14.98;100.00;-25488.63;5104543;28;19928;-77
2022/07/30 03:08:27;;;;;;;;;;;;;;;14.98;100.00;-25488.63;5084073;28;19924;-77
2022/07/30 03:10:54;;;;;;;;;;;;;;;15.01;100.00;-25489.50;5081670;28;19954;-76
2022/07/30 03:13:19;;;;;;;;;;;;;;;15.05;100.00;-25490.53;5078037;28;19916;-77
2022/07/30 03:15:47;;;;;;;;;;;;;;;15.04;100.00;-25490.22;5081009;28;19916;-78
2022/07/30 03:18:13;;;;;;;;;;;;;;;15.03;100.00;-25490.09;5073687;28;20027;-78
2022/07/30 03:20:39;;;;;;;;;;;;;;;15.01;100.00;-25489.50;5089745;28;20372;-77
2022/07/30 03:23:06;;;;;;;;;;;;;;;14.96;100.00;-25488.03;5090059;28;20030;-76
2022/07/30 03:25:33;;;;;;;;;;;;;;;14.99;100.00;-25488.91;5082388;28;19942;-77
2022/07/30 03:27:59;;;;;;;;;;;;;;;14.99;100.00;-25488.78;5077850;28;19920;-78
2022/07/30 03:30:25;;;;;;;;;;;;;;;14.94;100.00;-25487.31;5072298;28;19928;-78
2022/07/30 03:32:52;;;;;;;;;;;;;;;14.90;100.00;-25486.31;5086185;28;19962;-79
2022/07/30 03:35:20;;;;;;;;;;;;;;;14.82;100.00;-25483.97;5088768;28;19956;-79
2022/07/30 03:37:46;;;;;;;;;;;;;;;14.74;100.00;-25481.78;5091114;28;20381;-78
2022/07/30 03:40:12;;;;;;;;;;;;;;;14.74;100.00;-25481.63;5089602;28;20007;-80
2022/07/30 03:42:40;;;;;;;;;;;;;;;14.68;100.00;-25480.19;5079970;28;19920;-79
2022/07/30 03:45:06;;;;;;;;;;;;;;;14.77;100.00;-25482.50;5094517;28;19916;-79
2022/07/30 03:47:33;;;;;;;;;;;;;;;14.81;100.00;-25483.69;5074553;28;19927;-79
2022/07/30 03:49:59;;;;;;;;;;;;;;;14.82;100.00;-25484.13;5074640;28;19995;-79
2022/07/30 03:52:25;;;;;;;;;;;;;;;14.78;100.00;-25482.94;5087969;28;19958;-79
2022/07/30 03:54:51;;;;;;;;;;;;;;;14.77;100.00;-25482.50;5086015;28;20015;-78
2022/07/30 03:57:16;;;;;;;;;;;;;;;14.82;100.00;-25483.97;5087872;28;20351;-77
2022/07/30 03:59:42;;;;;;;;;;;;;;;14.84;100.00;-25484.69;5078138;28;20015;-79
2022/07/30 04:02:07;;;;;;;;;;;;;;;14.85;100.00;-25485.00;5074792;28;19916;-79
2022/07/30 04:04:32;;;;;;;;;;;;;;;14.80;100.00;-25483.38;5075592;28;19985;-78
2022/07/30 04:06:58;;;;;;;;;;;;;;;14.74;100.00;-25481.78;5074088;28;19923;-79
2022/07/30 04:09:24;;;;;;;;;;;;;;;14.74;100.00;-25481.63;5080786;28;19920;-78
2022/07/30 04:11:49;;;;;;;;;;;;;;;14.74;100.00;-25481.63;5082549;28;19927;-79
2022/07/30 04:14:20;;;;;;;;;;;;;;;14.82;100.00;-25484.13;5084159;28;21559;-78
2022/07/30 04:16:50;;;;;;;;;;;;;;;14.85;100.00;-25484.84;5074456;28;19920;-79
2022/07/30 04:19:21;;;;;;;;;;;;;;;14.95;100.00;-25487.75;5078776;28;19923;-79
2022/07/30 04:21:48;;;;;;;;;;;;;;;15.09;100.00;-25491.69;5109010;28;19943;-78
2022/07/30 04:24:14;;;;;;;;;;;;;;;15.18;100.00;-25494.31;5092368;28;19978;-78
2022/07/30 04:26:40;;;;;;;;;;;;;;;15.30;100.00;-25497.50;5075192;28;19969;-76
2022/07/30 04:29:06;;;;;;;;;;;;;;;15.34;100.00;-25498.81;5066955;28;20343;-77
2022/07/30 04:31:34;;;;;;;;;;;;;;;15.31;100.00;-25497.94;5064224;28;19931;-76
2022/07/30 04:34:03;;;;;;;;;;;;;;;15.46;100.00;-25502.00;5078583;28;19963;-75
2022/07/30 04:36:29;;;;;;;;;;;;;;;16.47;100.00;-25530.78;5091926;28;20287;-76
2022/07/30 04:38:57;;;;;;;;;;;;;;;17.47;100.00;-25558.78;5056948;28;20441;-76
2022/07/30 04:41:23;;;;;;;;;;;;;;;18.10;100.00;-25576.59;5080886;28;19928;-75
2022/07/30 04:43:51;;;;;;;;;;;;;;;18.88;100.00;-25598.59;5075611;28;19920;-74
2022/07/30 04:46:16;;;;;;;;;;;;;;;19.71;100.00;-25621.97;5067346;28;20016;-75
2022/07/30 04:48:41;;;;;;;;;;;;;;;20.02;100.00;-19661.19;5074888;28;19956;-77
2022/07/30 04:51:10;;;;;;;;;;;;;;;20.52;100.00;-363.63;5090549;28;19928;-76
2022/07/30 04:53:37;;;;;;;;;;;;;;;20.01;100.00;25391.84;5055029;28;19927;-78
2022/07/30 04:56:03;;;;;;;;;;;;;;;19.28;100.00;37442.59;5081740;28;20026;-76
2022/07/30 04:58:28;;;;;;;;;;;;;;;18.92;100.00;29357.78;5079544;28;19958;-76
2022/07/30 05:00:55;;;;;;;;;;;;;;;18.82;100.00;24994.47;5087720;28;19963;-76
2022/07/30 05:03:24;;;;;;;;;;;;;;;18.86;100.00;19974.13;5080778;28;20014;-78
2022/07/30 05:05:49;;;;;;;;;;;;;;;18.50;100.00;17618.47;5091095;28;19920;-77
2022/07/30 05:08:15;;;;;;;;;;;;;;;18.41;100.00;11604.53;5072402;28;19932;-78
2022/07/30 05:10:41;;;;;;;;;;;;;;;18.29;100.00;6933.75;5079480;28;19920;-77
2022/07/30 05:13:15;;;;;;;;;;;;;;;18.45;100.00;4938.25;5072913;28;19924;-79
2022/07/30 05:15:40;;;;;;;;;;;;;;;18.22;100.00;940.16;5073459;28;20391;-79
2022/07/30 05:18:06;;;;;;;;;;;;;;;18.21;100.00;-2052.41;5075854;28;19924;-76
2022/07/30 05:20:31;;;;;;;;;;;;;;;18.37;100.00;-2383.47;5070245;28;19927;-76
2022/07/30 05:22:56;;;;;;;;;;;;;;;18.39;100.00;-2050.81;5066906;28;20311;-77
2022/07/30 05:25:22;;;;;;;;;;;;;;;18.86;100.00;-3377.25;5079086;28;19931;-75
2022/07/30 05:27:47;;;;;;;;;;;;;;;19.17;100.00;4285.81;5087889;28;20368;-76
2022/07/30 05:30:12;;;;;;;;;;;;;;;19.19;100.00;8956.84;5056006;28;19929;-78
2022/07/30 05:32:39;;;;;;;;;;;;;;;19.33;100.00;13303.75;5104912;28;19927;-77
2022/07/30 05:35:04;;;;;;;;;;;;;;;19.64;100.00;21348.59;5069813;28;20045;-76
2022/07/30 05:37:30;;;;;;;;;;;;;;;20.08;100.00;31779.00;5079769;28;19970;-76
2022/07/30 05:39:55;;;;;;;;;;;;;;;20.30;100.00;52026.88;5076868;28;19917;-77
2022/07/30 05:42:22;;;;;;;;;;;;;;;21.49;100.00;93341.66;5081227;28;19959;-77
2022/07/30 05:44:48;;;;;;;;;;;;;;;21.24;100.00;135945.88;5074064;28;20240;-77
2022/07/30 05:47:13;;;;;;;;;;;;;;;21.56;100.00;148140.41;5081554;28;20006;-78
2022/07/30 05:49:38;;;;;;;;;;;;;;;22.31;100.00;148327.66;5074110;28;19916;-76
2022/07/30 05:52:04;;;;;;;;;;;;;;;22.71;100.00;148427.75;5061881;28;19928;-79
2022/07/30 05:54:30;;;;;;;;;;;;;;;22.05;100.00;148264.78;5080423;28;19940;-76
2022/07/30 05:56:55;;;;;;;;;;;;;;;22.24;100.00;148312.22;5076721;28;19921;-78
2022/07/30 05:59:22;;;;;;;;;;;;;;;22.23;100.00;148309.69;5076657;28;19927;-77
2022/07/30 06:01:47;;;;;;;;;;;;;;;22.47;100.00;148368.72;5076463;28;19921;-77
2022/07/30 06:04:14;;;;;;;;;;;;;;;23.55;100.00;148638.25;5081601;28;19931;-79
2022/07/30 06:06:40;;;;;;;;;;;;;;;23.75;100.00;148688.34;5075873;28;20288;-78
2022/07/30 06:09:07;;;;;;;;;;;;;;;23.05;100.00;148512.44;5074571;28;19924;-78
2022/07/30 06:11:32;;;;;;;;;;;;;;;22.19;100.00;148299.41;5077203;28;20138;-76
2022/07/30 06:13:57;;;;;;;;;;;;;;;21.21;100.00;148054.47;5079320;28;20015;-80
2022/07/30 06:16:23;;;;;;;;;;;;;;;20.78;100.00;147946.81;5071633;28;20289;-76
2022/07/30 06:18:48;;;;;;;;;;;;;;;20.76;100.00;147942.94;5085889;28;20047;-78
2022/07/30 06:21:17;;;;;;;;;;;;;;;20.70;100.00;147926.31;5093446;28;19934;-78
2022/07/30 06:23:44;;;;;;;;;;;;;;;20.70;100.00;147927.56;5082675;28;19923;-78
2022/07/30 06:26:09;;;;;;;;;;;;;;;20.38;100.00;147848.06;5070336;28;19924;-81
2022/07/30 06:28:35;;;;;;;;;;;;;;;20.00;100.00;147753.31;5083260;28;19939;-77
2022/07/30 06:31:01;;;;;;;;;;;;;;;19.93;100.00;147735.38;5097265;28;19946;-80
2022/07/30 06:33:26;;;;;;;;;;;;;;;19.77;100.00;147694.41;5073727;28;20356;-79
2022/07/30 06:35:51;;;;;;;;;;;;;;;19.86;100.00;147717.47;5069281;28;20008;-78
2022/07/30 06:38:17;;;;;;;;;;;;;;;19.93;100.00;147734.09;5066671;28;19961;-79
2022/07/30 06:40:42;;;;;;;;;;;;;;;20.07;100.00;147771.25;5071397;28;19920;-79
2022/07/30 06:43:08;;;;;;;;;;;;;;;19.98;100.00;147746.88;5085977;28;19993;-77
2022/07/30 06:45:33;;;;;;;;;;;;;;;19.89;100.00;147726.41;5074093;28;20363;-78
2022/07/30 06:47:58;;;;;;;;;;;;;;;19.86;100.00;147717.47;5089787;28;19916;-80
2022/07/30 06:50:24;;;;;;;;;;;;;;;19.75;100.00;147690.53;5076357;28;19962;-79
2022/07/30 06:52:50;;;;;;;;;;;;;;;19.81;100.00;147704.63;5083834;28;19923;-75
2022/07/30 06:55:15;;;;;;;;;;;;;;;19.72;100.00;147684.09;5070792;28;20003;-75
2022/07/30 06:57:40;;;;;;;;;;;;;;;19.98;100.00;147748.19;5093298;28;20398;-74
2022/07/30 07:00:06;;;;;;;;;;;;;;;20.35;100.00;147839.13;5118624;27;19920;-75
2022/07/30 07:02:41;;;;;;;;;;;;;;;20.27;100.00;147819.91;5093917;28;19920;-76
2022/07/30 07:05:06;;;;;;;;;;;;;;;20.20;100.00;147802.00;5086083;28;19931;-77
2022/07/30 07:07:33;;;;;;;;;;;;;;;20.24;100.00;147813.53;5092805;28;20488;-76
2022/07/30 07:09:58;;;;;;;;;;;;;;;20.23;100.00;147809.69;5089660;28;19916;-75
2022/07/30 07:12:23;;;;;;;;;;;;;;;20.32;100.00;147832.69;5069951;28;20299;-74
2022/07/30 07:14:49;;;;;;;;;;;;;;;20.37;100.00;147845.53;5063903;28;19955;-75
2022/07/30 07:17:14;;;;;;;;;;;;;;;21.33;100.00;148083.91;5076819;28;19969;-79
2022/07/30 07:19:39;;;;;;;;;;;;;;;23.09;100.00;148524.03;5097232;28;19962;-77
2022/07/30 07:22:05;;;;;;;;;;;;;;;24.00;100.00;148751.34;5072467;28;20062;-76
2022/07/30 07:24:32;;;;;;;;;;;;;;;25.27;100.00;149067.41;5087320;28;20011;-79
2022/07/30 07:26:57;;;;;;;;;;;;;;;25.67;100.00;149167.72;5069278;28;19920;-80
2022/07/30 07:29:25;;;;;;;;;;;;;;;25.67;100.00;149167.72;5081175;28;19927;-77
2022/07/30 07:32:02;;;;;;;;;;;;;;;25.06;100.00;149016.00;5093089;28;20049;-77
2022/07/30 07:34:32;;;;;;;;;;;;;;;25.19;100.00;149046.84;5077698;28;19927;-77
2022/07/30 07:36:58;;;;;;;;;;;;;;;24.86;100.00;148964.56;5057794;28;19943;-79
2022/07/30 07:39:23;;;;;;;;;;;;;;;25.17;100.00;149041.69;5074915;28;20376;-78
2022/07/30 07:41:48;;;;;;;;;;;;;;;26.05;100.00;149261.59;5091051;28;19932;-80
2022/07/30 07:44:15;;;;;;;;;;;;;;;26.85;100.00;149463.59;5092105;28;20008;-77
2022/07/30 07:46:41;;;;;;;;;;;;;;;27.84;100.00;149709.41;5091018;28;19923;-78
2022/07/30 07:49:06;;;;;;;;;;;;;;;27.54;100.00;149634.78;5076584;28;20002;-78
2022/07/30 07:51:31;;;;;;;;;;;;;;;27.88;100.00;149721.00;5087505;28;19926;-81
2022/07/30 07:53:59;;;;;;;;;;;;;;;27.85;100.00;149713.28;5086822;28;19955;-80
2022/07/30 07:56:25;;;;;;;;;;;;;;;28.14;100.00;149785.44;5072230;28;19989;-79
2022/07/30 07:58:52;;;;;;;;;;;;;;;27.73;100.00;149682.38;5066849;28;20365;-76
2022/07/30 08:01:18;;;;;;;;;;;;;;;27.09;100.00;149522.75;5081169;28;20532;-81
2022/07/30 08:03:43;;;;;;;;;;;;;;;27.33;100.00;149581.97;5076474;28;19976;-80
2022/07/30 08:06:09;;;;;;;;;;;;;;;28.66;100.00;149915.53;5051821;28;19967;-81
2022/07/30 08:08:35;;;;;;;;;;;;;;;28.27;100.00;149817.63;5052381;28;20293;-81
2022/07/30 08:11:01;;;;;;;;;;;;;;;28.89;100.00;149973.50;5068368;28;19920;-77
2022/07/30 08:13:27;;;;;;;;;;;;;;;28.13;100.00;149782.84;5072260;28;19924;-78
2022/07/30 08:15:52;;;;;;;;;;;;;;;28.58;100.00;149896.22;5054086;28;20020;-75
2022/07/30 08:18:17;;;;;;;;;;;;;;;27.96;100.00;149739.09;5058778;28;20011;-78
2022/07/30 08:20:43;;;;;;;;;;;;;;;27.50;100.00;149625.78;5059708;28;19964;-78
2022/07/30 08:23:08;;;;;;;;;;;;;;;27.92;100.00;149730.00;5065120;28;19928;-80
2022/07/30 08:25:33;;;;;;;;;;;;;;;27.21;100.00;149553.66;5064665;28;19942;-81
2022/07/30 08:28:01;;;;;;;;;;;;;;;26.44;100.00;149360.59;5070626;28;19916;-80
2022/07/30 08:30:27;;;;;;;;;;;;;;;26.51;100.00;149377.38;5070766;28;19947;-81
2022/07/30 08:32:52;;;;;;;;;;;;;;;27.41;100.00;149602.63;5070214;28;19916;-77
2022/07/30 08:35:18;;;;;;;;;;;;;;;26.90;100.00;149475.16;5071029;28;20395;-78
2022/07/30 08:37:43;;;;;;;;;;;;;;;27.65;100.00;149663.06;5070645;28;19966;-82
2022/07/30 08:40:09;;;;;;;;;;;;;;;27.03;100.00;149507.31;5069971;28;20690;-79
2022/07/30 08:42:34;;;;;;;;;;;;;;;26.86;100.00;149466.19;5070773;28;20244;-78
2022/07/30 08:45:00;;;;;;;;;;;;;;;27.48;100.00;149619.31;5070173;28;19917;-81
2022/07/30 08:47:32;;;;;;;;;;;;;;;27.57;100.00;149642.50;5069809;28;19921;-79
2022/07/30 08:50:03;;;;;;;;;;;;;;;27.68;100.00;149670.81;5070068;28;19913;-80
2022/07/30 08:52:29;;;;;;;;;;;;;;;27.65;100.00;149661.81;5070908;28;20340;-78
2022/07/30 08:54:54;;;;;;;;;;;;;;;27.70;100.00;149674.66;5069694;28;19913;-78
2022/07/30 08:57:20;;;;;;;;;;;;;;;27.18;100.00;149545.91;5103895;28;19923;-78
2022/07/30 08:59:46;;;;;;;;;;;;;;;28.28;100.00;149820.22;5070002;28;19917;-80
2022/07/30 09:02:11;;;;;;;;;;;;;;;26.99;100.00;149498.31;5069900;28;20296;-80
2022/07/30 09:04:36;;;;;;;;;;;;;;;27.20;100.00;149549.78;5069715;28;19975;-79
2022/07/30 09:07:01;;;;;;;;;;;;;;;27.51;100.00;149628.31;5069615;28;19931;-80
2022/07/30 09:09:27;;;;;;;;;;;;;;;27.11;100.00;149527.88;5104338;28;20312;-80
2022/07/30 09:11:52;;;;;;;;;;;;;;;26.95;100.00;149486.75;5070516;28;20020;-81
2022/07/30 09:14:18;;;;;;;;;;;;;;;26.32;100.00;149331.06;5070086;28;20356;-81
2022/07/30 09:16:43;;;;;;;;;;;;;;;26.48;100.00;149370.91;5070009;28;19924;-76
2022/07/30 09:19:20;;;;;;;;;;;;;;;26.21;100.00;149301.47;5069980;28;19923;-79
2022/07/30 09:21:55;;;;;;;;;;;;;;;26.70;100.00;149425.00;5069871;28;19916;-79
2022/07/30 09:24:20;;;;;;;;;;;;;;;26.94;100.00;149485.47;5071787;28;20224;-80
2022/07/30 09:26:54;;;;;;;;;;;;;;;26.47;100.00;149367.06;5070944;28;19999;-79
2022/07/30 09:29:24;;;;;;;;;;;;;;;25.92;100.00;149229.44;5069570;28;19923;-80
2022/07/30 09:31:58;;;;;;;;;;;;;;;26.23;100.00;149307.91;5069793;28;20377;-80
2022/07/30 09:34:23;;;;;;;;;;;;;;;26.38;100.00;149345.16;5103520;28;20003;-79
2022/07/30 09:36:49;;;;;;;;;;;;;;;26.20;100.00;149300.19;5073063;28;19989;-79
2022/07/30 09:39:26;;;;;;;;;;;;;;;27.31;100.00;149576.81;5077229;28;20023;-80
2022/07/30 09:41:51;;;;;;;;;;;;;;;26.57;100.00;149392.78;5077746;28;19912;-79
2022/07/30 09:44:22;;;;;;;;;;;;;;;26.74;100.00;149435.28;5110020;28;19938;-79
2022/07/30 09:46:50;;;;;;;;;;;;;;;25.89;100.00;149221.72;5076739;28;19916;-78
2022/07/30 09:49:19;;;;;;;;;;;;;;;26.34;100.00;149334.91;5110176;28;20315;-79
2022/07/30 09:51:45;;;;;;;;;;;;;;;25.96;100.00;149241.00;5078028;28;19955;-78
2022/07/30 09:54:10;;;;;;;;;;;;;;;26.24;100.00;149309.19;5077133;28;19966;-77
2022/07/30 09:56:36;;;;;;;;;;;;;;;26.30;100.00;149325.94;5076092;28;19920;-77
2022/07/30 09:59:01;;;;;;;;;;;;;;;25.98;100.00;149246.19;5076115;28;19938;-78
2022/07/30 10:01:27;;;;;;;;;;;;;;;25.79;100.00;149198.56;5076306;28;19934;-77
2022/07/30 10:03:53;;;;;;;;;;;;;;;25.83;100.00;149206.28;5083707;28;20356;-77
2022/07/30 10:06:31;;;;;;;;;;;;;;;25.82;100.00;149204.97;5083318;28;19916;-79
2022/07/30 10:08:56;;;;;;;;;;;;;;;26.10;100.00;149275.78;5084062;28;19970;-79
2022/07/30 10:11:22;;;;;;;;;;;;;;;25.74;100.00;149184.41;5079038;28;19925;-76
2022/07/30 10:13:50;;;;;;;;;;;;;;;25.63;100.00;149158.69;5111597;28;19920;-81
2022/07/30 10:16:16;;;;;;;;;;;;;;;26.33;100.00;149332.31;5083686;28;20439;-80
2022/07/30 10:18:41;;;;;;;;;;;;;;;26.25;100.00;149311.75;5074218;28;19924;-76
2022/07/30 10:21:07;;;;;;;;;;;;;;;26.09;100.00;149273.19;5078484;28;19924;-76
2022/07/30 10:23:33;;;;;;;;;;;;;;;25.86;100.00;149214.00;5062923;28;20017;-75
2022/07/30 10:25:59;;;;;;;;;;;;;;;25.95;100.00;149238.41;5090141;28;19920;-79
2022/07/30 10:28:25;;;;;;;;;;;;;;;25.86;100.00;149215.25;5076542;28;19917;-76
2022/07/30 10:30:54;;;;;;;;;;;;;;;26.09;100.00;149273.19;5109857;28;19920;-78
2022/07/30 10:33:24;;;;;;;;;;;;;;;26.27;100.00;149316.88;5108388;27;19920;-76
2022/07/30 10:35:50;;;;;;;;;;;;;;;26.39;100.00;149347.75;5088172;28;19948;-76
2022/07/30 10:38:16;;;;;;;;;;;;;;;26.33;100.00;149332.31;5076178;28;19952;-78
2022/07/30 10:40:42;;;;;;;;;;;;;;;25.88;100.00;149219.13;5088626;28;19955;-80
2022/07/30 10:43:36;;;;;;;;;;;;;;;25.83;100.00;149207.56;5096653;28;20324;-79
2022/07/30 10:46:08;;;;;;;;;;;;;;;25.58;100.00;149144.56;5083235;28;19930;-78
2022/07/30 10:48:33;;;;;;;;;;;;;;;25.43;100.00;149107.28;5090072;28;19926;-77
2022/07/30 10:50:59;;;;;;;;;;;;;;;25.41;100.00;149103.41;5084099;28;19920;-78
2022/07/30 10:53:41;;;;;;;;;;;;;;;25.50;100.00;149124.03;5092909;28;19959;-79
2022/07/30 10:56:17;;;;;;;;;;;;;;;26.24;100.00;149310.50;5092567;28;20379;-77
2022/07/30 10:59:01;;;;;;;;;;;;;;;26.37;100.00;149341.31;5092761;28;19916;-79
2022/07/30 11:01:49;;;;;;;;;;;;;;;26.67;100.00;149417.28;5092611;28;19919;-81
2022/07/30 11:04:26;;;;;;;;;;;;;;;26.60;100.00;149399.19;5083981;28;20057;-78
2022/07/30 11:07:01;;;;;;;;;;;;;;;27.07;100.00;149516.34;5092678;28;19927;-76
2022/07/30 11:09:40;;;;;;;;;;;;;;;26.87;100.00;149468.72;5093029;28;20379;-79
2022/07/30 11:12:05;;;;;;;;;;;;;;;26.92;100.00;149479.03;5092364;28;19917;-79
2022/07/30 11:14:49;;;;;;;;;;;;;;;26.73;100.00;149432.72;5092372;28;19919;-81
2022/07/30 11:17:16;;;;;;;;;;;;;;;26.39;100.00;149347.75;5092865;28;19927;-78
2022/07/30 11:20:14;;;;;;;;;;;;;;;26.65;100.00;149412.09;5092582;28;19950;-74
2022/07/30 11:22:48;;;;;;;;;;;;;;;26.15;100.00;149288.63;5058718;28;19920;-75
2022/07/30 11:25:26;;;;;;;;;;;;;;;26.42;100.00;149355.47;5091322;28;19920;-74
2022/07/30 11:27:52;;;;;;;;;;;;;;;26.43;100.00;149356.75;5091837;28;19916;-78
2022/07/30 11:30:21;;;;;;;;;;;;;;;26.22;100.00;149304.03;5091999;28;19927;-79
2022/07/30 11:32:48;;;;;;;;;;;;;;;26.04;100.00;149259.03;5092470;28;19927;-79
2022/07/30 11:35:24;;;;;;;;;;;;;;;26.07;100.00;149266.72;5091778;28;19920;-78
2022/07/30 11:37:55;;;;;;;;;;;;;;;26.23;100.00;149307.91;5077185;28;19921;-74
2022/07/30 11:40:22;;;;;;;;;;;;;;;26.07;100.00;149268.06;5074326;28;19923;-82
2022/07/30 11:42:48;;;;;;;;;;;;;;;26.15;100.00;149288.63;5074665;28;20003;-80
2022/07/30 11:45:14;;;;;;;;;;;;;;;25.94;100.00;149235.81;5072700;28;19920;-81
2022/07/30 11:47:40;;;;;;;;;;;;;;;26.42;100.00;149354.22;5074446;28;19917;-82
2022/07/30 11:50:06;;;;;;;;;;;;;;;26.33;100.00;149332.31;5073941;28;19913;-81
2022/07/30 11:52:32;;;;;;;;;;;;;;;26.56;100.00;149388.94;5073636;28;20399;-81
2022/07/30 11:54:58;;;;;;;;;;;;;;;26.48;100.00;149369.63;5076857;28;19917;-77
2022/07/30 11:57:39;;;;;;;;;;;;;;;26.73;100.00;149432.72;5082019;28;19920;-78
2022/07/30 12:00:04;;;;;;;;;;;;;;;26.50;100.00;149376.03;5089981;28;19921;-79
2022/07/30 12:02:30;;;;;;;;;;;;;;;26.22;100.00;149304.03;5092504;28;20251;-78
2022/07/30 12:04:55;;;;;;;;;;;;;;;26.33;100.00;149332.31;5091411;28;20253;-78
2022/07/30 12:07:21;;;;;;;;;;;;;;;26.24;100.00;149309.19;5093118;28;19916;-78
2022/07/30 12:09:47;;;;;;;;;;;;;;;25.72;100.00;149179.28;5091803;28;19999;-79
2022/07/30 12:12:26;;;;;;;;;;;;;;;26.46;100.00;149365.78;5091989;28;19916;-79
2022/07/30 12:14:51;;;;;;;;;;;;;;;26.30;100.00;149325.94;5091096;28;20438;-79
2022/07/30 12:17:16;;;;;;;;;;;;;;;26.63;100.00;149406.91;5091321;28;19916;-77
2022/07/30 12:19:45;;;;;;;;;;;;;;;26.20;100.00;149298.91;5091529;28;19969;-77
2022/07/30 12:22:12;;;;;;;;;;;;;;;26.63;100.00;149406.91;5087062;28;19921;-79
2022/07/30 12:24:39;;;;;;;;;;;;;;;26.81;100.00;149452.00;5090177;28;19920;-78
2022/07/30 12:27:05;;;;;;;;;;;;;;;26.52;100.00;149381.22;5088618;28;19917;-79
2022/07/30 12:29:31;;;;;;;;;;;;;;;26.56;100.00;149388.94;5071834;28;19969;-80
2022/07/30 12:31:57;;;;;;;;;;;;;;;26.85;100.00;149463.59;5071654;28;19936;-79